sensor_id;sensor_type;location;lat;lon;timestamp;pressure;altitude;pressure_sealevel;temperature;humidity
43683;BME280;29285;52.128;21.060;2023-05-18T00:04:04;101073.04;;;10.31;100.00
43683;BME280;29285;52.128;21.060;2023-05-18T00:09:05;101074.62;;;10.26;100.00
43683;BME280;29285;52.128;21.060;2023-05-18T00:14:06;101071.50;;;10.22;100.00
43683;BME280;29285;52.128;21.060;2023-05-18T00:19:07;101063.70;;;10.24;100.00
43683;BME280;29285;52.128;21.060;2023-05-18T00:24:09;101068.39;;;10.18;100.00
43683;BME280;29285;52.128;21.060;2023-05-18T00:29:12;101074.80;;;10.19;100.00
43683;BME280;29285;52.128;21.060;2023-05-18T00:34:14;101075.67;;;10.25;100.00
43683;BME280;29285;52.128;21.060;2023-05-18T00:39:15;101072.55;;;10.20;100.00
43683;BME280;29285;52.128;21.060;2023-05-18T00:44:17;101082.96;;;10.15;100.00
43683;BME280;29285;52.128;21.060;2023-05-18T00:49:18;101093.90;;;10.11;100.00
43683;BME280;29285;52.128;21.060;2023-05-18T00:54:19;101095.98;;;10.05;100.00
43683;BME280;29285;52.128;21.060;2023-05-18T00:59:20;101102.58;;;10.00;100.00
43683;BME280;29285;52.128;21.060;2023-05-18T01:04:22;101103.45;;;9.98;100.00
43683;BME280;29285;52.128;21.060;2023-05-18T01:09:24;101091.85;;;9.93;100.00
43683;BME280;29285;52.128;21.060;2023-05-18T01:14:36;101095.48;;;9.95;100.00
43683;BME280;29285;52.128;21.060;2023-05-18T01:20:06;101099.83;;;9.92;100.00
43683;BME280;29285;52.128;21.060;2023-05-18T01:25:17;101103.80;;;9.91;100.00
43683;BME280;29285;52.128;21.060;2023-05-18T01:30:22;101106.58;;;9.88;100.00
43683;BME280;29285;52.128;21.060;2023-05-18T01:35:23;101109.70;;;9.86;100.00
43683;BME280;29285;52.128;21.060;2023-05-18T01:40:25;101119.59;;;9.91;100.00
43683;BME280;29285;52.128;21.060;2023-05-18T01:45:27;101118.18;;;9.96;100.00
43683;BME280;29285;52.128;21.060;2023-05-18T01:50:33;101119.73;;;9.98;100.00
43683;BME280;29285;52.128;21.060;2023-05-18T01:55:39;101126.69;;;10.02;100.00
43683;BME280;29285;52.128;21.060;2023-05-18T02:00:41;101125.80;;;10.02;100.00
43683;BME280;29285;52.128;21.060;2023-05-18T02:05:42;101127.20;;;10.01;100.00
43683;BME280;29285;52.128;21.060;2023-05-18T02:10:43;101129.80;;;10.00;100.00
43683;BME280;29285;52.128;21.060;2023-05-18T02:15:44;101132.77;;;9.96;100.00
43683;BME280;29285;52.128;21.060;2023-05-18T02:20:45;101136.21;;;9.98;100.00
43683;BME280;29285;52.128;21.060;2023-05-18T02:25:48;101139.50;;;10.01;100.00
43683;BME280;29285;52.128;21.060;2023-05-18T02:30:49;101141.06;;;9.98;100.00
43683;BME280;29285;52.128;21.060;2023-05-18T02:35:51;101139.16;;;9.98;100.00
43683;BME280;29285;52.128;21.060;2023-05-18T02:40:53;101136.74;;;9.98;100.00
43683;BME280;29285;52.128;21.060;2023-05-18T02:45:53;101146.27;;;9.93;100.00
43683;BME280;29285;52.128;21.060;2023-05-18T02:50:54;101149.40;;;9.92;100.00
43683;BME280;29285;52.128;21.060;2023-05-18T02:55:56;101150.95;;;9.86;100.00
43683;BME280;29285;52.128;21.060;2023-05-18T03:00:57;101158.41;;;9.83;100.00
43683;BME280;29285;52.128;21.060;2023-05-18T03:06:03;101164.30;;;9.75;100.00
43683;BME280;29285;52.128;21.060;2023-05-18T03:11:05;101163.41;;;9.70;100.00
43683;BME280;29285;52.128;21.060;2023-05-18T03:16:06;101168.96;;;9.65;100.00
43683;BME280;29285;52.128;21.060;2023-05-18T03:21:07;101175.02;;;9.63;100.00
43683;BME280;29285;52.128;21.060;2023-05-18T03:26:08;101176.75;;;9.60;100.00
43683;BME280;29285;52.128;21.060;2023-05-18T03:31:11;101180.39;;;9.60;100.00
43683;BME280;29285;52.128;21.060;2023-05-18T03:36:12;101184.03;;;9.61;100.00
43683;BME280;29285;52.128;21.060;2023-05-18T03:41:13;101183.17;;;9.63;100.00
43683;BME280;29285;52.128;21.060;2023-05-18T03:46:14;101184.02;;;9.62;100.00
43683;BME280;29285;52.128;21.060;2023-05-18T03:51:15;101190.80;;;9.63;100.00
43683;BME280;29285;52.128;21.060;2023-05-18T03:56:16;101198.93;;;9.63;100.00
43683;BME280;29285;52.128;21.060;2023-05-18T04:01:17;101200.84;;;9.59;100.00
43683;BME280;29285;52.128;21.060;2023-05-18T04:06:19;101208.81;;;9.63;100.00
43683;BME280;29285;52.128;21.060;2023-05-18T04:11:22;101208.64;;;9.66;100.00
43683;BME280;29285;52.128;21.060;2023-05-18T04:16:23;101212.63;;;9.71;100.00
43683;BME280;29285;52.128;21.060;2023-05-18T04:21:24;101218.70;;;9.76;100.00
43683;BME280;29285;52.128;21.060;2023-05-18T04:26:25;101224.42;;;9.71;100.00
43683;BME280;29285;52.128;21.060;2023-05-18T04:31:26;101231.34;;;9.72;100.00
43683;BME280;29285;52.128;21.060;2023-05-18T04:36:27;101230.83;;;9.74;100.00
43683;BME280;29285;52.128;21.060;2023-05-18T04:41:30;101234.13;;;9.82;100.00
43683;BME280;29285;52.128;21.060;2023-05-18T04:46:33;101232.77;;;9.83;100.00
43683;BME280;29285;52.128;21.060;2023-05-18T04:51:37;101236.57;;;9.83;100.00
43683;BME280;29285;52.128;21.060;2023-05-18T04:56:39;101236.92;;;9.91;100.00
43683;BME280;29285;52.128;21.060;2023-05-18T05:01:40;101241.60;;;9.91;100.00
43683;BME280;29285;52.128;21.060;2023-05-18T05:06:41;101243.69;;;9.91;100.00
43683;BME280;29285;52.128;21.060;2023-05-18T05:11:42;101246.29;;;9.92;100.00
43683;BME280;29285;52.128;21.060;2023-05-18T05:16:43;101252.01;;;9.95;100.00
43683;BME280;29285;52.128;21.060;2023-05-18T05:21:44;101252.02;;;9.97;100.00
43683;BME280;29285;52.128;21.060;2023-05-18T05:26:45;101256.00;;;9.98;100.00
43683;BME280;29285;52.128;21.060;2023-05-18T05:31:46;101263.63;;;9.94;100.00
43683;BME280;29285;52.128;21.060;2023-05-18T05:36:47;101266.23;;;9.99;100.00
43683;BME280;29285;52.128;21.060;2023-05-18T05:41:48;101269.19;;;10.10;100.00
43683;BME280;29285;52.128;21.060;2023-05-18T05:46:49;101274.05;;;10.20;100.00
43683;BME280;29285;52.128;21.060;2023-05-18T05:51:51;101274.58;;;10.34;100.00
43683;BME280;29285;52.128;21.060;2023-05-18T05:56:52;101272.86;;;10.49;100.00
43683;BME280;29285;52.128;21.060;2023-05-18T06:01:53;101273.03;;;10.59;100.00
43683;BME280;29285;52.128;21.060;2023-05-18T06:06:54;101272.49;;;10.75;100.00
43683;BME280;29285;52.128;21.060;2023-05-18T06:11:55;101274.73;;;10.83;100.00
43683;BME280;29285;52.128;21.060;2023-05-18T06:16:56;101275.59;;;10.85;100.00
43683;BME280;29285;52.128;21.060;2023-05-18T06:21:57;101284.61;;;10.90;100.00
43683;BME280;29285;52.128;21.060;2023-05-18T06:26:58;101282.52;;;10.97;100.00
43683;BME280;29285;52.128;21.060;2023-05-18T06:31:59;101282.15;;;11.00;100.00
43683;BME280;29285;52.128;21.060;2023-05-18T06:37:01;101288.39;;;11.02;100.00
43683;BME280;29285;52.128;21.060;2023-05-18T06:42:02;101290.64;;;11.08;100.00
43683;BME280;29285;52.128;21.060;2023-05-18T06:47:03;101295.13;;;11.17;100.00
43683;BME280;29285;52.128;21.060;2023-05-18T06:52:04;101300.84;;;11.25;100.00
43683;BME280;29285;52.128;21.060;2023-05-18T06:57:06;101302.20;;;11.34;100.00
43683;BME280;29285;52.128;21.060;2023-05-18T07:02:07;101304.77;;;11.39;100.00
43683;BME280;29285;52.128;21.060;2023-05-18T07:07:08;101304.40;;;11.45;100.00
43683;BME280;29285;52.128;21.060;2023-05-18T07:12:10;101309.78;;;11.49;100.00
43683;BME280;29285;52.128;21.060;2023-05-18T07:17:11;101311.70;;;11.45;100.00
43683;BME280;29285;52.128;21.060;2023-05-18T07:22:12;101312.54;;;11.53;100.00
43683;BME280;29285;52.128;21.060;2023-05-18T07:27:13;101315.80;;;11.62;100.00
43683;BME280;29285;52.128;21.060;2023-05-18T07:32:14;101320.47;;;11.69;100.00
43683;BME280;29285;52.128;21.060;2023-05-18T07:37:15;101328.21;;;11.82;100.00
43683;BME280;29285;52.128;21.060;2023-05-18T07:42:16;101332.54;;;11.87;100.00
43683;BME280;29285;52.128;21.060;2023-05-18T07:47:18;101332.70;;;11.89;100.00
43683;BME280;29285;52.128;21.060;2023-05-18T07:52:21;101333.19;;;11.95;100.00
43683;BME280;29285;52.128;21.060;2023-05-18T07:57:22;101337.84;;;12.02;100.00
43683;BME280;29285;52.128;21.060;2023-05-18T08:02:24;101344.06;;;12.13;100.00
43683;BME280;29285;52.128;21.060;2023-05-18T08:07:25;101348.73;;;12.19;100.00
43683;BME280;29285;52.128;21.060;2023-05-18T08:12:29;101354.62;;;12.23;100.00
43683;BME280;29285;52.128;21.060;2023-05-18T08:17:30;101352.98;;;12.33;100.00
43683;BME280;29285;52.128;21.060;2023-05-18T08:22:32;101349.25;;;12.43;100.00
43683;BME280;29285;52.128;21.060;2023-05-18T08:27:33;101351.92;;;12.57;100.00
43683;BME280;29285;52.128;21.060;2023-05-18T08:32:33;101354.82;;;12.66;100.00
43683;BME280;29285;52.128;21.060;2023-05-18T08:37:36;101356.77;;;12.60;100.00
43683;BME280;29285;52.128;21.060;2023-05-18T08:42:50;101356.52;;;12.72;100.00
43683;BME280;29285;52.128;21.060;2023-05-18T08:47:59;101354.98;;;12.88;100.00
43683;BME280;29285;52.128;21.060;2023-05-18T08:53:04;101351.54;;;13.00;100.00
43683;BME280;29285;52.128;21.060;2023-05-18T08:58:08;101349.65;;;13.17;100.00
43683;BME280;29285;52.128;21.060;2023-05-18T09:03:10;101345.55;;;13.25;100.00
43683;BME280;29285;52.128;21.060;2023-05-18T09:08:11;101346.13;;;13.33;100.00
43683;BME280;29285;52.128;21.060;2023-05-18T09:13:13;101346.55;;;13.45;100.00
43683;BME280;29285;52.128;21.060;2023-05-18T09:18:14;101350.88;;;13.49;100.00
43683;BME280;29285;52.128;21.060;2023-05-18T09:23:15;101351.03;;;13.50;100.00
43683;BME280;29285;52.128;21.060;2023-05-18T09:28:45;101349.48;;;13.46;100.00
43683;BME280;29285;52.128;21.060;2023-05-18T09:33:49;101347.67;;;13.53;100.00
43683;BME280;29285;52.128;21.060;2023-05-18T09:38:51;101347.16;;;13.68;100.00
43683;BME280;29285;52.128;21.060;2023-05-18T09:50:11;101357.58;;;13.70;100.00
43683;BME280;29285;52.128;21.060;2023-05-18T09:55:17;101360.38;;;13.83;100.00
43683;BME280;29285;52.128;21.060;2023-05-18T10:00:19;101358.02;;;13.90;100.00
43683;BME280;29285;52.128;21.060;2023-05-18T10:10:25;101352.29;;;14.01;100.00
43683;BME280;29285;52.128;21.060;2023-05-18T10:15:27;101352.41;;;14.06;100.00
43683;BME280;29285;52.128;21.060;2023-05-18T10:20:28;101349.84;;;14.15;100.00
43683;BME280;29285;52.128;21.060;2023-05-18T10:25:29;101343.33;;;14.30;100.00
43683;BME280;29285;52.128;21.060;2023-05-18T10:30:33;101348.28;;;14.36;100.00
43683;BME280;29285;52.128;21.060;2023-05-18T10:35:37;101344.09;;;14.48;100.00
43683;BME280;29285;52.128;21.060;2023-05-18T10:40:42;101340.29;;;14.65;100.00
43683;BME280;29285;52.128;21.060;2023-05-18T10:45:47;101347.49;;;14.76;100.00
43683;BME280;29285;52.128;21.060;2023-05-18T10:50:50;101342.21;;;14.66;100.00
43683;BME280;29285;52.128;21.060;2023-05-18T10:55:52;101343.38;;;14.70;100.00
43683;BME280;29285;52.128;21.060;2023-05-18T11:01:04;101344.86;;;14.76;100.00
43683;BME280;29285;52.128;21.060;2023-05-18T11:06:11;101342.58;;;14.87;100.00
43683;BME280;29285;52.128;21.060;2023-05-18T11:11:15;101340.00;;;14.95;100.00
43683;BME280;29285;52.128;21.060;2023-05-18T11:16:17;101336.60;;;15.09;100.00
43683;BME280;29285;52.128;21.060;2023-05-18T11:21:49;101334.71;;;15.16;100.00
43683;BME280;29285;52.128;21.060;2023-05-18T11:27:07;101332.23;;;15.27;100.00
43683;BME280;29285;52.128;21.060;2023-05-18T11:32:22;101330.70;;;15.42;100.00
43683;BME280;29285;52.128;21.060;2023-05-18T11:42:39;101326.63;;;15.61;100.00
43683;BME280;29285;52.128;21.060;2023-05-18T11:47:40;101334.83;;;15.78;100.00
43683;BME280;29285;52.128;21.060;2023-05-18T11:52:49;101338.35;;;15.95;100.00
43683;BME280;29285;52.128;21.060;2023-05-18T11:57:51;101337.10;;;16.04;100.00
43683;BME280;29285;52.128;21.060;2023-05-18T12:02:55;101337.44;;;16.20;100.00
43683;BME280;29285;52.128;21.060;2023-05-18T12:07:57;101339.73;;;16.41;100.00
43683;BME280;29285;52.128;21.060;2023-05-18T12:12:59;101340.61;;;16.56;100.00
43683;BME280;29285;52.128;21.060;2023-05-18T12:18:01;101342.59;;;16.67;100.00
43683;BME280;29285;52.128;21.060;2023-05-18T12:23:02;101339.80;;;16.74;100.00
43683;BME280;29285;52.128;21.060;2023-05-18T12:28:03;101337.43;;;16.70;100.00
43683;BME280;29285;52.128;21.060;2023-05-18T12:33:04;101336.16;;;16.72;100.00
43683;BME280;29285;52.128;21.060;2023-05-18T12:38:06;101329.13;;;16.80;100.00
43683;BME280;29285;52.128;21.060;2023-05-18T12:43:07;101330.29;;;16.89;100.00
43683;BME280;29285;52.128;21.060;2023-05-18T12:48:09;101334.20;;;16.94;100.00
43683;BME280;29285;52.128;21.060;2023-05-18T12:53:11;101328.39;;;16.95;100.00
43683;BME280;29285;52.128;21.060;2023-05-18T12:58:14;101332.47;;;16.86;100.00
43683;BME280;29285;52.128;21.060;2023-05-18T13:03:18;101333.48;;;16.67;100.00
43683;BME280;29285;52.128;21.060;2023-05-18T13:08:22;101334.78;;;16.50;100.00
43683;BME280;29285;52.128;21.060;2023-05-18T13:13:23;101331.34;;;16.41;100.00
43683;BME280;29285;52.128;21.060;2023-05-18T13:18:25;101330.49;;;16.32;100.00
43683;BME280;29285;52.128;21.060;2023-05-18T13:23:27;101330.04;;;16.14;100.00
43683;BME280;29285;52.128;21.060;2023-05-18T13:28:28;101327.21;;;16.00;100.00
43683;BME280;29285;52.128;21.060;2023-05-18T13:33:30;101324.10;;;15.90;100.00
43683;BME280;29285;52.128;21.060;2023-05-18T13:38:31;101324.38;;;15.84;100.00
43683;BME280;29285;52.128;21.060;2023-05-18T13:43:35;101323.15;;;15.77;100.00
43683;BME280;29285;52.128;21.060;2023-05-18T13:48:36;101322.98;;;15.68;100.00
43683;BME280;29285;52.128;21.060;2023-05-18T13:53:37;101325.29;;;15.67;100.00
43683;BME280;29285;52.128;21.060;2023-05-18T13:58:38;101325.32;;;15.73;100.00
43683;BME280;29285;52.128;21.060;2023-05-18T14:03:39;101328.20;;;15.70;100.00
43683;BME280;29285;52.128;21.060;2023-05-18T14:08:40;101327.15;;;15.62;100.00
43683;BME280;29285;52.128;21.060;2023-05-18T14:13:41;101328.52;;;15.55;100.00
43683;BME280;29285;52.128;21.060;2023-05-18T14:18:42;101325.36;;;15.47;100.00
43683;BME280;29285;52.128;21.060;2023-05-18T14:23:43;101326.47;;;15.44;100.00
43683;BME280;29285;52.128;21.060;2023-05-18T14:28:44;101324.77;;;15.41;100.00
43683;BME280;29285;52.128;21.060;2023-05-18T14:33:45;101325.63;;;15.34;100.00
43683;BME280;29285;52.128;21.060;2023-05-18T14:38:46;101326.45;;;15.28;100.00
43683;BME280;29285;52.128;21.060;2023-05-18T14:43:47;101329.50;;;15.23;100.00
43683;BME280;29285;52.128;21.060;2023-05-18T14:48:50;101331.52;;;15.19;100.00
43683;BME280;29285;52.128;21.060;2023-05-18T14:53:51;101332.27;;;15.16;100.00
43683;BME280;29285;52.128;21.060;2023-05-18T14:58:52;101332.98;;;15.15;100.00
43683;BME280;29285;52.128;21.060;2023-05-18T15:03:53;101334.60;;;15.13;100.00
43683;BME280;29285;52.128;21.060;2023-05-18T15:08:54;101334.46;;;15.10;100.00
43683;BME280;29285;52.128;21.060;2023-05-18T15:13:55;101333.92;;;15.12;100.00
43683;BME280;29285;52.128;21.060;2023-05-18T15:18:56;101330.80;;;15.10;100.00
43683;BME280;29285;52.128;21.060;2023-05-18T15:23:57;101336.13;;;15.06;100.00
43683;BME280;29285;52.128;21.060;2023-05-18T15:28:58;101336.27;;;14.98;100.00
43683;BME280;29285;52.128;21.060;2023-05-18T15:33:59;101332.58;;;14.89;100.00
43683;BME280;29285;52.128;21.060;2023-05-18T15:39:00;101341.14;;;14.81;100.00
43683;BME280;29285;52.128;21.060;2023-05-18T15:44:04;101338.04;;;14.77;100.00
43683;BME280;29285;52.128;21.060;2023-05-18T15:49:05;101340.72;;;14.72;100.00
43683;BME280;29285;52.128;21.060;2023-05-18T15:54:06;101338.21;;;14.65;100.00
43683;BME280;29285;52.128;21.060;2023-05-18T15:59:07;101340.22;;;14.60;100.00
43683;BME280;29285;52.128;21.060;2023-05-18T16:04:08;101341.13;;;14.58;100.00
43683;BME280;29285;52.128;21.060;2023-05-18T16:09:10;101342.61;;;14.53;100.00
43683;BME280;29285;52.128;21.060;2023-05-18T16:14:11;101344.21;;;14.51;100.00
43683;BME280;29285;52.128;21.060;2023-05-18T16:19:12;101340.75;;;14.50;100.00
43683;BME280;29285;52.128;21.060;2023-05-18T16:24:13;101344.59;;;14.49;100.00
43683;BME280;29285;52.128;21.060;2023-05-18T16:29:14;101345.31;;;14.48;100.00
43683;BME280;29285;52.128;21.060;2023-05-18T16:34:15;101342.04;;;14.45;100.00
43683;BME280;29285;52.128;21.060;2023-05-18T16:39:16;101343.48;;;14.42;100.00
43683;BME280;29285;52.128;21.060;2023-05-18T16:44:16;101344.23;;;14.39;100.00
43683;BME280;29285;52.128;21.060;2023-05-18T16:49:17;101345.67;;;14.36;100.00
43683;BME280;29285;52.128;21.060;2023-05-18T16:54:20;101343.61;;;14.34;100.00
43683;BME280;29285;52.128;21.060;2023-05-18T16:59:21;101351.15;;;14.31;100.00
43683;BME280;29285;52.128;21.060;2023-05-18T17:04:22;101355.55;;;14.29;100.00
43683;BME280;29285;52.128;21.060;2023-05-18T17:09:23;101357.98;;;14.29;100.00
43683;BME280;29285;52.128;21.060;2023-05-18T17:14:24;101358.37;;;14.27;100.00
43683;BME280;29285;52.128;21.060;2023-05-18T17:19:25;101360.49;;;14.24;100.00
43683;BME280;29285;52.128;21.060;2023-05-18T17:24:26;101363.21;;;14.19;100.00
43683;BME280;29285;52.128;21.060;2023-05-18T17:29:27;101363.09;;;14.15;100.00
43683;BME280;29285;52.128;21.060;2023-05-18T17:34:29;101363.80;;;14.13;100.00
43683;BME280;29285;52.128;21.060;2023-05-18T17:39:30;101366.52;;;14.08;100.00
43683;BME280;29285;52.128;21.060;2023-05-18T17:44:31;101367.09;;;14.03;100.00
43683;BME280;29285;52.128;21.060;2023-05-18T17:49:32;101368.19;;;14.00;100.00
43683;BME280;29285;52.128;21.060;2023-05-18T17:54:34;101368.20;;;13.98;100.00
43683;BME280;29285;52.128;21.060;2023-05-18T17:59:35;101373.11;;;13.97;100.00
43683;BME280;29285;52.128;21.060;2023-05-18T18:04:36;101382.55;;;13.95;100.00
43683;BME280;29285;52.128;21.060;2023-05-18T18:09:37;101385.73;;;13.93;100.00
43683;BME280;29285;52.128;21.060;2023-05-18T18:14:38;101383.48;;;13.92;100.00
43683;BME280;29285;52.128;21.060;2023-05-18T18:19:39;101388.56;;;13.89;100.00
43683;BME280;29285;52.128;21.060;2023-05-18T18:24:41;101394.70;;;13.87;100.00
43683;BME280;29285;52.128;21.060;2023-05-18T18:29:42;101393.16;;;13.83;100.00
43683;BME280;29285;52.128;21.060;2023-05-18T18:34:43;101394.62;;;13.79;100.00
43683;BME280;29285;52.128;21.060;2023-05-18T18:39:44;101401.31;;;13.74;100.00
43683;BME280;29285;52.128;21.060;2023-05-18T18:44:44;101401.17;;;13.71;100.00
43683;BME280;29285;52.128;21.060;2023-05-18T18:49:45;101399.14;;;13.66;100.00
43683;BME280;29285;52.128;21.060;2023-05-18T18:54:46;101400.06;;;13.61;100.00
43683;BME280;29285;52.128;21.060;2023-05-18T18:59:47;101402.40;;;13.56;100.00
43683;BME280;29285;52.128;21.060;2023-05-18T19:04:48;101402.42;;;13.53;100.00
43683;BME280;29285;52.128;21.060;2023-05-18T19:09:49;101404.02;;;13.50;100.00
43683;BME280;29285;52.128;21.060;2023-05-18T19:14:50;101409.98;;;13.47;100.00
43683;BME280;29285;52.128;21.060;2023-05-18T19:19:51;101409.83;;;13.44;100.00
43683;BME280;29285;52.128;21.060;2023-05-18T19:24:53;101412.64;;;13.41;100.00
43683;BME280;29285;52.128;21.060;2023-05-18T19:29:53;101414.60;;;13.36;100.00
43683;BME280;29285;52.128;21.060;2023-05-18T19:34:54;101415.36;;;13.31;100.00
43683;BME280;29285;52.128;21.060;2023-05-18T19:39:55;101417.46;;;13.29;100.00
43683;BME280;29285;52.128;21.060;2023-05-18T19:44:56;101412.79;;;13.27;100.00
43683;BME280;29285;52.128;21.060;2023-05-18T19:49:58;101412.98;;;13.24;100.00
43683;BME280;29285;52.128;21.060;2023-05-18T19:54:59;101413.17;;;13.23;100.00
43683;BME280;29285;52.128;21.060;2023-05-18T20:00:01;101411.60;;;13.22;100.00
43683;BME280;29285;52.128;21.060;2023-05-18T20:05:03;101419.45;;;13.21;100.00
43683;BME280;29285;52.128;21.060;2023-05-18T20:10:06;101422.79;;;13.20;100.00
43683;BME280;29285;52.128;21.060;2023-05-18T20:15:07;101428.36;;;13.19;100.00
43683;BME280;29285;52.128;21.060;2023-05-18T20:20:09;101428.36;;;13.19;100.00
43683;BME280;29285;52.128;21.060;2023-05-18T20:25:11;101429.23;;;13.21;100.00
43683;BME280;29285;52.128;21.060;2023-05-18T20:30:13;101431.66;;;13.22;100.00
43683;BME280;29285;52.128;21.060;2023-05-18T20:35:14;101435.46;;;13.23;100.00
43683;BME280;29285;52.128;21.060;2023-05-18T20:40:15;101442.96;;;13.23;100.00
43683;BME280;29285;52.128;21.060;2023-05-18T20:45:16;101445.57;;;13.24;100.00
43683;BME280;29285;52.128;21.060;2023-05-18T20:50:18;101447.33;;;13.24;100.00
43683;BME280;29285;52.128;21.060;2023-05-18T20:55:20;101451.14;;;13.24;100.00
43683;BME280;29285;52.128;21.060;2023-05-18T21:00:21;101450.82;;;13.21;100.00
43683;BME280;29285;52.128;21.060;2023-05-18T21:05:22;101457.48;;;13.17;100.00
43683;BME280;29285;52.128;21.060;2023-05-18T21:10:23;101457.85;;;13.15;100.00
43683;BME280;29285;52.128;21.060;2023-05-18T21:15:24;101463.96;;;13.14;100.00
43683;BME280;29285;52.128;21.060;2023-05-18T21:20:25;101470.21;;;13.15;100.00
43683;BME280;29285;52.128;21.060;2023-05-18T21:25:26;101468.98;;;13.17;100.00
43683;BME280;29285;52.128;21.060;2023-05-18T21:30:29;101465.66;;;13.17;100.00
43683;BME280;29285;52.128;21.060;2023-05-18T21:35:30;101468.64;;;13.17;100.00
43683;BME280;29285;52.128;21.060;2023-05-18T21:40:31;101469.33;;;13.17;100.00
43683;BME280;29285;52.128;21.060;2023-05-18T21:45:32;101475.28;;;13.15;100.00
43683;BME280;29285;52.128;21.060;2023-05-18T21:50:36;101477.54;;;13.15;100.00
43683;BME280;29285;52.128;21.060;2023-05-18T21:55:37;101486.77;;;13.14;100.00
43683;BME280;29285;52.128;21.060;2023-05-18T22:00:38;101483.48;;;13.13;100.00
43683;BME280;29285;52.128;21.060;2023-05-18T22:05:39;101482.77;;;13.15;100.00
43683;BME280;29285;52.128;21.060;2023-05-18T22:10:44;101486.45;;;13.13;100.00
43683;BME280;29285;52.128;21.060;2023-05-18T22:15:45;101489.27;;;13.06;100.00
43683;BME280;29285;52.128;21.060;2023-05-18T22:20:46;101495.25;;;13.00;100.00
43683;BME280;29285;52.128;21.060;2023-05-18T22:25:47;101498.23;;;12.98;100.00
43683;BME280;29285;52.128;21.060;2023-05-18T22:30:51;101500.69;;;12.96;100.00
43683;BME280;29285;52.128;21.060;2023-05-18T22:35:52;101499.31;;;12.91;100.00
43683;BME280;29285;52.128;21.060;2023-05-18T22:40:53;101499.52;;;12.88;100.00
43683;BME280;29285;52.128;21.060;2023-05-18T22:45:54;101496.41;;;12.84;100.00
43683;BME280;29285;52.128;21.060;2023-05-18T22:50:55;101497.98;;;12.82;100.00
43683;BME280;29285;52.128;21.060;2023-05-18T22:55:57;101499.02;;;12.83;100.00
43683;BME280;29285;52.128;21.060;2023-05-18T23:00:58;101495.73;;;12.81;100.00
43683;BME280;29285;52.128;21.060;2023-05-18T23:05:59;101492.61;;;12.79;100.00
43683;BME280;29285;52.128;21.060;2023-05-18T23:11:02;101492.10;;;12.78;100.00
43683;BME280;29285;52.128;21.060;2023-05-18T23:16:05;101490.02;;;12.76;100.00
43683;BME280;29285;52.128;21.060;2023-05-18T23:21:10;101487.27;;;12.74;100.00
43683;BME280;29285;52.128;21.060;2023-05-18T23:26:11;101486.59;;;12.67;100.00
43683;BME280;29285;52.128;21.060;2023-05-18T23:31:12;101482.81;;;12.60;100.00
43683;BME280;29285;52.128;21.060;2023-05-18T23:36:13;101481.45;;;12.53;100.00
43683;BME280;29285;52.128;21.060;2023-05-18T23:41:18;101478.71;;;12.46;100.00
43683;BME280;29285;52.128;21.060;2023-05-18T23:46:20;101475.27;;;12.40;100.00
43683;BME280;29285;52.128;21.060;2023-05-18T23:51:21;101476.16;;;12.36;100.00
43683;BME280;29285;52.128;21.060;2023-05-18T23:56:24;101478.10;;;12.31;100.00
